North Conway, NH (03860)

4:30 PM EDT on July 03, 2015 (GMT -0400)
101 Pollard St | | Change Station
CLOSE
Current Station
Personal Weather Station
Location: Conway, NH
Elevation: 489 ft
Nearby Weather Stations

Elev 489 ft 43.98 °N, 71.11 °W | Updated 8 seconds ago

Clear
Clear
76.5 °F
Feels Like 78 °F
N
1.2
Wind Variable Wind from North
Gusts 1.2 mph

Today
High -- | Low -- °F
--% Chance of Precip.
Yesterday
High -- | Low -- °F
Precip. -- in
5:06 AM 8:30 PM
Waning Gibbous, 96% visible
Pressure 29.93 in
Visibility 10.0 miles
Clouds Few 7000 ft
Heat Index 78 °F
Dew Point 53 °F
Humidity 44%
Rainfall 0.00 in
Snow Depth Not available.
UV 6 out of 12
Pollen 5.00 out of 12
Air Quality Not available.
Flu Activity Not available.
METAR KIZG 031954Z AUTO VRB04KT 10SM FEW070 26/09 A2992 RMK AO2 SLP133 T02560094

More Conditions Fewer Conditions

Pressure 29.93 in
Visibility 10.0 miles
Clouds Few 7000 ft
Heat Index 78 °F
Dew Point 53 °F
Humidity 44%
Rainfall 0.00 in
Snow Depth Not available.
UV 6 out of 12
Pollen 5.00 out of 12
Air Quality Not available.
Flu Activity Not available.
METAR KIZG 031954Z AUTO VRB04KT 10SM FEW070 26/09 A2992 RMK AO2 SLP133 T02560094

More Conditions Fewer Conditions

10-Day Weather Forecast

×

Almanac

Astronomy

Jul. 03, 2015 Rise Set
Actual Time
Civil Twilight
Nautical Twilight
Astronomical Twilight
Moon
Length of Visible Light
Length of Day
Tomorrow will be .
, % of the Moon is Illuminated

Today's Extremes

State Highs State Lows

Community

WunderPhotos

Upload Photos

1,834,774 photos uploaded!

WunderBlogs® & News

Nearby

Air Quality

  Air Quality AQ Index Pollutant
Not available.

Snow Depth

Station Depth Elevation

Earthquake Activity

City Distance Mag. Time & Date
Minimum magnitude displayed is 2.5.

Coastal Water Temperatures

Place Temperature

Stations

Nearby Weather Stations

Station Location Temp. Windchill Dew Point Humidity Wind Precip. Elev Updated Type